createdAt,value
2022-10-08T00:00:01.124Z,18.70
2022-10-08T00:00:12.960Z,18.60
2022-10-08T00:00:24.750Z,18.70
2022-10-08T00:00:36.982Z,18.70
2022-10-08T00:00:52.956Z,18.70
2022-10-08T00:01:09.731Z,18.70
2022-10-08T00:01:21.747Z,18.70
2022-10-08T00:01:34.881Z,18.70
2022-10-08T00:01:46.662Z,18.70
2022-10-08T00:01:58.417Z,18.70
2022-10-08T00:02:10.097Z,18.70
2022-10-08T00:02:21.929Z,18.70
2022-10-08T00:02:33.714Z,18.70
2022-10-08T00:02:45.759Z,18.70
2022-10-08T00:02:57.739Z,18.70
2022-10-08T00:03:09.615Z,18.70
2022-10-08T00:03:22.493Z,18.70
2022-10-08T00:03:35.697Z,18.70
2022-10-08T00:03:49.318Z,18.70
2022-10-08T00:04:01.241Z,18.60
2022-10-08T00:04:13.169Z,18.70
2022-10-08T00:04:24.859Z,18.70
2022-10-08T00:04:36.588Z,18.70
2022-10-08T00:04:48.240Z,18.60
2022-10-08T00:04:59.913Z,18.70
2022-10-08T00:05:11.562Z,18.70
2022-10-08T00:05:23.212Z,18.70
2022-10-08T00:05:34.862Z,18.70
2022-10-08T00:06:05.767Z,18.70
2022-10-08T00:06:19.180Z,18.70
2022-10-08T00:06:31.654Z,18.70
2022-10-08T00:06:43.465Z,18.70
2022-10-08T00:06:55.294Z,18.60
2022-10-08T00:07:07.722Z,18.60
2022-10-08T00:07:19.401Z,18.60
2022-10-08T00:07:31.048Z,18.60
2022-10-08T00:07:44.469Z,18.70
2022-10-08T00:07:56.402Z,18.60
2022-10-08T00:08:08.167Z,18.60
2022-10-08T00:08:19.966Z,18.70
2022-10-08T00:08:33.669Z,18.70
2022-10-08T00:08:49.550Z,18.70
2022-10-08T00:09:05.535Z,18.70
2022-10-08T00:09:17.564Z,18.70
2022-10-08T00:09:29.381Z,18.70
2022-10-08T00:09:41.017Z,18.70
2022-10-08T00:09:52.761Z,18.60
2022-10-08T00:10:06.342Z,18.70
2022-10-08T00:10:17.989Z,18.70
2022-10-08T00:10:29.650Z,18.70
2022-10-08T00:10:41.312Z,18.70
2022-10-08T00:10:54.397Z,18.70
2022-10-08T00:11:10.665Z,18.70
2022-10-08T00:11:27.109Z,18.70
2022-10-08T00:11:40.147Z,18.70
2022-10-08T00:11:51.941Z,18.70
2022-10-08T00:12:03.660Z,18.60
2022-10-08T00:12:15.432Z,18.60
2022-10-08T00:12:27.524Z,18.70
2022-10-08T00:12:39.257Z,18.70
2022-10-08T00:12:50.977Z,18.60
2022-10-08T00:13:02.997Z,18.70
2022-10-08T00:13:14.794Z,18.60
2022-10-08T00:13:26.953Z,18.60
2022-10-08T00:13:42.508Z,18.60
2022-10-08T00:13:54.509Z,18.60
2022-10-08T00:14:06.657Z,18.60
2022-10-08T00:14:18.471Z,18.60
2022-10-08T00:14:30.153Z,18.60
2022-10-08T00:14:41.949Z,18.60
2022-10-08T00:14:53.914Z,18.60
2022-10-08T00:15:06.234Z,18.60
2022-10-08T00:15:17.883Z,18.60
2022-10-08T00:15:30.048Z,18.60
2022-10-08T00:15:42.288Z,18.60
2022-10-08T00:15:54.049Z,18.60
2022-10-08T00:16:06.587Z,18.60
2022-10-08T00:16:19.827Z,18.60
2022-10-08T00:16:33.535Z,18.60
2022-10-08T00:16:45.211Z,18.60
2022-10-08T00:16:56.880Z,18.60
2022-10-08T00:17:08.540Z,18.60
2022-10-08T00:17:20.205Z,18.60
2022-10-08T00:17:31.894Z,18.60
2022-10-08T00:17:43.543Z,18.60
2022-10-08T00:17:55.245Z,18.60
2022-10-08T00:18:06.837Z,18.60
2022-10-08T00:18:18.745Z,18.60
2022-10-08T00:18:30.394Z,18.60
2022-10-08T00:18:43.177Z,18.60
2022-10-08T00:18:58.084Z,18.60
2022-10-08T00:19:14.505Z,18.60
2022-10-08T00:19:26.173Z,18.60
2022-10-08T00:19:37.889Z,18.60
2022-10-08T00:19:49.545Z,18.60
2022-10-08T00:20:01.364Z,18.60
2022-10-08T00:20:13.008Z,18.60
2022-10-08T00:20:24.670Z,18.60
2022-10-08T00:20:36.308Z,18.60
2022-10-08T00:20:48.048Z,18.60
2022-10-08T00:21:14.234Z,18.60
2022-10-08T00:21:30.915Z,18.60
2022-10-08T00:21:44.094Z,18.60
2022-10-08T00:21:56.934Z,18.60
2022-10-08T00:22:08.732Z,18.60
2022-10-08T00:22:20.405Z,18.60
2022-10-08T00:22:32.037Z,18.50
2022-10-08T00:22:44.338Z,18.60
2022-10-08T00:22:56.283Z,18.60
2022-10-08T00:23:08.002Z,18.60
2022-10-08T00:23:19.821Z,18.60
2022-10-08T00:23:33.538Z,18.60
2022-10-08T00:23:46.920Z,18.60
2022-10-08T00:24:01.654Z,18.60
2022-10-08T00:24:15.279Z,18.50
2022-10-08T00:24:27.838Z,18.60
2022-10-08T00:24:40.202Z,18.60
2022-10-08T00:24:53.435Z,18.60
2022-10-08T00:25:05.605Z,18.60
2022-10-08T00:25:17.268Z,18.60
2022-10-08T00:25:28.976Z,18.60
2022-10-08T00:25:42.533Z,18.60
2022-10-08T00:25:54.187Z,18.60
2022-10-08T00:26:07.230Z,18.50
2022-10-08T00:26:20.187Z,18.50
2022-10-08T00:26:33.110Z,18.60
2022-10-08T00:26:44.889Z,18.50
2022-10-08T00:26:56.617Z,18.60
2022-10-08T00:27:08.235Z,18.60
2022-10-08T00:27:23.829Z,18.60
2022-10-08T00:27:36.026Z,18.60
2022-10-08T00:27:47.700Z,18.50
2022-10-08T00:28:00.152Z,18.60
2022-10-08T00:28:12.167Z,18.60
2022-10-08T00:28:23.955Z,18.50
2022-10-08T00:28:36.912Z,18.50
2022-10-08T00:28:48.669Z,18.60
2022-10-08T00:29:03.395Z,18.50
2022-10-08T00:29:16.977Z,18.60
2022-10-08T00:29:28.822Z,18.60
2022-10-08T00:29:41.274Z,18.60
2022-10-08T00:29:53.107Z,18.60
2022-10-08T00:30:05.095Z,18.60
2022-10-08T00:30:16.942Z,18.60
2022-10-08T00:30:28.612Z,18.50
2022-10-08T00:30:41.048Z,18.60
2022-10-08T00:30:52.685Z,18.60
2022-10-08T00:31:14.151Z,18.60
2022-10-08T00:31:32.370Z,18.50
2022-10-08T00:31:45.824Z,18.60
2022-10-08T00:31:57.678Z,18.60
2022-10-08T00:32:09.525Z,18.60
2022-10-08T00:32:21.167Z,18.60
2022-10-08T00:32:32.857Z,18.60
2022-10-08T00:32:45.318Z,18.60
2022-10-08T00:33:00.014Z,18.60
2022-10-08T00:33:12.357Z,18.60
2022-10-08T00:33:24.016Z,18.60
2022-10-08T00:33:38.430Z,18.60
2022-10-08T00:33:51.654Z,18.60
2022-10-08T00:34:05.993Z,18.60
2022-10-08T00:34:20.981Z,18.60
2022-10-08T00:34:32.954Z,18.60
2022-10-08T00:34:44.880Z,18.60
2022-10-08T00:34:57.343Z,18.50
2022-10-08T00:35:09.519Z,18.50
2022-10-08T00:35:21.314Z,18.50
2022-10-08T00:35:37.545Z,18.50
2022-10-08T00:35:49.222Z,18.50
2022-10-08T00:36:01.953Z,18.50
2022-10-08T00:36:13.755Z,18.50
2022-10-08T00:36:27.418Z,18.50
2022-10-08T00:36:39.851Z,18.50
2022-10-08T00:36:52.700Z,18.50
2022-10-08T00:37:04.513Z,18.50
2022-10-08T00:37:16.792Z,18.50
2022-10-08T00:37:28.447Z,18.50
2022-10-08T00:37:40.089Z,18.50
2022-10-08T00:37:51.896Z,18.50
2022-10-08T00:38:03.586Z,18.50
2022-10-08T00:38:15.230Z,18.50
2022-10-08T00:38:26.857Z,18.50
2022-10-08T00:38:38.969Z,18.50
2022-10-08T00:38:57.283Z,18.50
2022-10-08T00:39:14.655Z,18.50
2022-10-08T00:39:26.476Z,18.50
2022-10-08T00:39:38.129Z,18.50
2022-10-08T00:39:49.971Z,18.50
2022-10-08T00:40:01.851Z,18.50
2022-10-08T00:40:14.116Z,18.50
2022-10-08T00:40:25.804Z,18.50
2022-10-08T00:40:46.584Z,18.50
2022-10-08T00:40:59.601Z,18.50
2022-10-08T00:41:20.864Z,18.50
2022-10-08T00:41:34.120Z,18.50
2022-10-08T00:41:47.826Z,18.50
2022-10-08T00:42:00.726Z,18.50
2022-10-08T00:42:12.577Z,18.50
2022-10-08T00:42:24.751Z,18.50
2022-10-08T00:42:38.486Z,18.50
2022-10-08T00:42:50.233Z,18.40
2022-10-08T00:43:03.457Z,18.50
2022-10-08T00:43:15.645Z,18.50
2022-10-08T00:43:40.503Z,18.50
2022-10-08T00:43:53.704Z,18.50
2022-10-08T00:44:42.611Z,18.50
2022-10-08T00:44:56.378Z,18.50
2022-10-08T00:45:11.964Z,18.50
2022-10-08T00:45:23.779Z,18.50
2022-10-08T00:45:35.494Z,18.50
2022-10-08T00:45:47.818Z,18.40
2022-10-08T00:45:59.533Z,18.50
2022-10-08T00:46:49.868Z,18.50
2022-10-08T00:47:01.648Z,18.50
2022-10-08T00:47:25.690Z,18.50
2022-10-08T00:47:46.330Z,18.50
2022-10-08T00:47:58.716Z,18.50
2022-10-08T00:48:21.092Z,18.50
2022-10-08T00:48:33.122Z,18.40
2022-10-08T00:48:44.748Z,18.40
2022-10-08T00:49:06.756Z,18.40
2022-10-08T00:49:19.619Z,18.40
2022-10-08T00:49:31.330Z,18.40
2022-10-08T00:49:43.879Z,18.40
2022-10-08T00:49:59.290Z,18.40
2022-10-08T00:50:15.546Z,18.50
2022-10-08T00:50:32.982Z,18.50
2022-10-08T00:50:44.718Z,18.40
2022-10-08T00:50:56.530Z,18.40
2022-10-08T00:51:08.316Z,18.40
2022-10-08T00:51:19.975Z,18.40
2022-10-08T00:51:32.103Z,18.40
2022-10-08T00:51:45.872Z,18.40
2022-10-08T00:51:58.260Z,18.40
2022-10-08T00:52:10.049Z,18.40
2022-10-08T00:52:21.898Z,18.40
2022-10-08T00:52:35.306Z,18.40
2022-10-08T00:52:49.834Z,18.40
2022-10-08T00:53:03.615Z,18.40
2022-10-08T00:53:15.280Z,18.40
2022-10-08T00:53:27.080Z,18.40
2022-10-08T00:53:39.896Z,18.40
2022-10-08T00:53:52.197Z,18.40
2022-10-08T00:54:03.914Z,18.40
2022-10-08T00:54:15.992Z,18.40
2022-10-08T00:54:27.685Z,18.40
2022-10-08T00:54:39.362Z,18.40
2022-10-08T00:54:51.330Z,18.40
2022-10-08T00:55:06.614Z,18.40
2022-10-08T00:55:20.246Z,18.40
2022-10-08T00:55:32.002Z,18.40
2022-10-08T00:55:44.242Z,18.40
2022-10-08T00:55:55.914Z,18.40
2022-10-08T00:56:08.614Z,18.40
2022-10-08T00:56:20.815Z,18.40
2022-10-08T00:56:34.790Z,18.40
2022-10-08T00:56:51.121Z,18.40
2022-10-08T00:57:02.957Z,18.40
2022-10-08T00:57:14.850Z,18.40
2022-10-08T00:57:27.371Z,18.40
2022-10-08T00:57:39.064Z,18.40
2022-10-08T00:57:50.884Z,18.40
2022-10-08T00:58:05.193Z,18.40
2022-10-08T00:58:20.119Z,18.40
2022-10-08T00:58:31.811Z,18.40
2022-10-08T00:58:43.734Z,18.40
2022-10-08T00:58:55.375Z,18.40
2022-10-08T00:59:07.980Z,18.40
2022-10-08T00:59:20.512Z,18.40
2022-10-08T00:59:32.173Z,18.40
2022-10-08T00:59:43.985Z,18.40
2022-10-08T00:59:56.485Z,18.40
2022-10-08T01:00:11.029Z,18.40
2022-10-08T01:00:23.988Z,18.40
2022-10-08T01:00:35.678Z,18.40
2022-10-08T01:00:48.255Z,18.40
2022-10-08T01:01:00.165Z,18.40
2022-10-08T01:01:12.300Z,18.40
2022-10-08T01:01:24.282Z,18.30
2022-10-08T01:01:36.665Z,18.30
2022-10-08T01:01:48.432Z,18.30
2022-10-08T01:02:00.860Z,18.30
2022-10-08T01:02:13.577Z,18.30
2022-10-08T01:02:25.329Z,18.30
2022-10-08T01:02:37.021Z,18.30
2022-10-08T01:02:49.252Z,18.30
2022-10-08T01:03:03.206Z,18.30
2022-10-08T01:03:14.817Z,18.30
2022-10-08T01:03:26.462Z,18.30
2022-10-08T01:03:38.107Z,18.30
2022-10-08T01:03:49.781Z,18.30
2022-10-08T01:04:05.618Z,18.30
2022-10-08T01:04:17.308Z,18.30
2022-10-08T01:04:29.661Z,18.30
2022-10-08T01:04:41.645Z,18.30
2022-10-08T01:04:53.300Z,18.30
2022-10-08T01:05:05.631Z,18.30
2022-10-08T01:05:19.807Z,18.30
2022-10-08T01:05:39.328Z,18.20
2022-10-08T01:06:19.934Z,18.20
2022-10-08T01:06:42.340Z,18.20
2022-10-08T01:06:58.309Z,18.30
2022-10-08T01:07:32.430Z,18.20
2022-10-08T01:08:02.928Z,18.20
2022-10-08T01:08:41.736Z,18.20
2022-10-08T01:08:57.867Z,18.20
2022-10-08T01:09:11.095Z,18.20
2022-10-08T01:09:29.042Z,18.20
2022-10-08T01:09:44.335Z,18.20
2022-10-08T01:09:59.235Z,18.20
2022-10-08T01:10:34.627Z,18.20
2022-10-08T01:10:57.231Z,18.20
2022-10-08T01:11:36.088Z,18.20
2022-10-08T01:12:09.749Z,18.30
2022-10-08T01:12:24.413Z,18.30
2022-10-08T01:12:51.113Z,18.30
2022-10-08T01:13:13.064Z,18.30
2022-10-08T01:13:39.864Z,18.30
2022-10-08T01:14:05.771Z,18.30
2022-10-08T01:14:45.061Z,18.30
2022-10-08T01:14:57.017Z,18.30
2022-10-08T01:15:23.518Z,18.30
2022-10-08T01:15:45.841Z,18.30
2022-10-08T01:16:19.000Z,18.30
2022-10-08T01:16:39.894Z,18.30
2022-10-08T01:17:16.117Z,18.30
2022-10-08T01:17:54.386Z,18.30
2022-10-08T01:18:11.657Z,18.30
2022-10-08T01:18:31.400Z,18.30
2022-10-08T01:19:22.820Z,18.30
2022-10-08T01:19:56.319Z,18.30
2022-10-08T01:20:22.685Z,18.30
2022-10-08T01:20:48.186Z,18.30
2022-10-08T01:21:04.981Z,18.30
2022-10-08T01:21:31.383Z,18.30
2022-10-08T01:21:51.674Z,18.30
2022-10-08T01:22:23.238Z,18.30
2022-10-08T01:23:12.655Z,18.30
2022-10-08T01:23:27.066Z,18.30
2022-10-08T01:23:57.456Z,18.30
2022-10-08T01:24:47.572Z,18.30
2022-10-08T01:25:20.871Z,18.30
2022-10-08T01:25:57.927Z,18.30
2022-10-08T01:26:28.716Z,18.30
2022-10-08T01:27:16.207Z,18.20
2022-10-08T01:27:32.945Z,18.30
2022-10-08T01:27:46.504Z,18.20
2022-10-08T01:28:07.243Z,18.20
2022-10-08T01:28:24.767Z,18.20
2022-10-08T01:28:36.547Z,18.20
2022-10-08T01:28:54.744Z,18.20
2022-10-08T01:29:39.932Z,18.20
2022-10-08T01:29:51.755Z,18.20
2022-10-08T01:30:05.827Z,18.20
2022-10-08T01:30:18.282Z,18.20
2022-10-08T01:30:30.063Z,18.20
2022-10-08T01:30:47.517Z,18.20
2022-10-08T01:31:11.045Z,18.20
2022-10-08T01:31:31.523Z,18.20
2022-10-08T01:31:54.409Z,18.20
2022-10-08T01:32:14.155Z,18.20
2022-10-08T01:32:29.588Z,18.20
2022-10-08T01:32:43.727Z,18.20
2022-10-08T01:33:02.229Z,18.20
2022-10-08T01:33:17.983Z,18.20
2022-10-08T01:33:33.961Z,18.20
2022-10-08T01:33:48.491Z,18.20
2022-10-08T01:34:03.296Z,18.20
2022-10-08T01:34:25.793Z,18.20
2022-10-08T01:34:48.013Z,18.20
2022-10-08T01:35:02.715Z,18.20
2022-10-08T01:35:20.449Z,18.20
2022-10-08T01:35:33.452Z,18.20
2022-10-08T01:35:48.598Z,18.20
2022-10-08T01:36:00.384Z,18.20
2022-10-08T01:36:12.444Z,18.20
2022-10-08T01:36:24.356Z,18.20
2022-10-08T01:36:41.680Z,18.20
2022-10-08T01:36:53.496Z,18.20
2022-10-08T01:37:06.169Z,18.20
2022-10-08T01:37:41.223Z,18.20
2022-10-08T01:37:56.227Z,18.20
2022-10-08T01:38:07.893Z,18.20
2022-10-08T01:38:19.784Z,18.20
2022-10-08T01:38:33.589Z,18.20
2022-10-08T01:38:58.634Z,18.20
2022-10-08T01:39:13.549Z,18.20
2022-10-08T01:39:27.428Z,18.20
2022-10-08T01:39:39.205Z,18.20
2022-10-08T01:39:50.997Z,18.20
2022-10-08T01:40:04.515Z,18.20
2022-10-08T01:40:20.481Z,18.20
2022-10-08T01:40:34.972Z,18.20
2022-10-08T01:40:47.132Z,18.20
2022-10-08T01:41:00.429Z,18.20
2022-10-08T01:41:12.603Z,18.20
2022-10-08T01:41:25.183Z,18.20
2022-10-08T01:41:37.488Z,18.20
2022-10-08T01:41:51.470Z,18.20
2022-10-08T01:42:03.609Z,18.20
2022-10-08T01:42:15.290Z,18.20
2022-10-08T01:42:27.130Z,18.20
2022-10-08T01:42:40.006Z,18.20
2022-10-08T01:42:51.945Z,18.20
2022-10-08T01:43:05.378Z,18.20
2022-10-08T01:43:18.350Z,18.20
2022-10-08T01:43:33.709Z,18.20
2022-10-08T01:43:48.636Z,18.20
2022-10-08T01:44:16.040Z,18.20
2022-10-08T01:44:32.747Z,18.20
2022-10-08T01:44:49.147Z,18.20
2022-10-08T01:45:02.994Z,18.20
2022-10-08T01:45:16.869Z,18.10
2022-10-08T01:45:34.561Z,18.20
2022-10-08T01:45:50.297Z,18.20
2022-10-08T01:46:07.292Z,18.10
2022-10-08T01:46:23.929Z,18.10
2022-10-08T01:46:36.635Z,18.10
2022-10-08T01:46:48.479Z,18.10
2022-10-08T01:47:01.604Z,18.10
2022-10-08T01:47:14.870Z,18.10
2022-10-08T01:47:31.059Z,18.10
2022-10-08T01:47:43.801Z,18.10
2022-10-08T01:47:55.586Z,18.10
2022-10-08T01:48:11.229Z,18.10
2022-10-08T01:48:32.084Z,18.10
2022-10-08T01:48:43.760Z,18.10
2022-10-08T01:48:57.802Z,18.10
2022-10-08T01:49:11.877Z,18.10
2022-10-08T01:49:23.532Z,18.10
2022-10-08T01:49:40.051Z,18.10
2022-10-08T01:49:54.223Z,18.10
2022-10-08T01:50:08.018Z,18.10
2022-10-08T01:50:41.422Z,18.10
2022-10-08T01:50:55.859Z,18.20
2022-10-08T01:51:13.796Z,18.10
2022-10-08T01:51:36.372Z,18.10
2022-10-08T01:51:51.610Z,18.10
2022-10-08T01:52:09.026Z,18.20
2022-10-08T01:52:23.854Z,18.20
2022-10-08T01:52:43.210Z,18.20
2022-10-08T01:52:57.143Z,18.20
2022-10-08T01:53:11.693Z,18.20
2022-10-08T01:53:25.802Z,18.20
2022-10-08T01:53:38.475Z,18.20
2022-10-08T01:53:50.690Z,18.20
2022-10-08T01:54:03.605Z,18.20
2022-10-08T01:54:16.425Z,18.20
2022-10-08T01:54:28.726Z,18.20
2022-10-08T01:54:41.036Z,18.20
2022-10-08T01:54:55.243Z,18.30
2022-10-08T01:55:10.506Z,18.30
2022-10-08T01:55:29.038Z,18.30
2022-10-08T01:55:42.523Z,18.30
2022-10-08T01:55:54.582Z,18.30
2022-10-08T01:56:06.562Z,18.30
2022-10-08T01:56:21.184Z,18.30
2022-10-08T01:56:32.866Z,18.30
2022-10-08T01:56:45.612Z,18.30
2022-10-08T01:56:58.317Z,18.30
2022-10-08T01:57:10.983Z,18.20
2022-10-08T01:57:22.906Z,18.30
2022-10-08T01:57:35.011Z,18.20
2022-10-08T01:57:46.796Z,18.20
2022-10-08T01:58:01.589Z,18.20
2022-10-08T01:58:18.958Z,18.20
2022-10-08T01:58:47.560Z,18.20
2022-10-08T01:59:13.535Z,18.20
2022-10-08T01:59:32.638Z,18.20
2022-10-08T01:59:51.264Z,18.30
2022-10-08T02:00:07.962Z,18.30
2022-10-08T02:00:20.676Z,18.30
2022-10-08T02:00:33.976Z,18.30
2022-10-08T02:00:45.657Z,18.20
2022-10-08T02:01:00.373Z,18.30
2022-10-08T02:01:15.264Z,18.30
2022-10-08T02:01:39.045Z,18.20
2022-10-08T02:01:50.791Z,18.30
2022-10-08T02:02:07.476Z,18.20
2022-10-08T02:02:23.765Z,18.20
2022-10-08T02:02:35.502Z,18.20
2022-10-08T02:02:47.528Z,18.20
2022-10-08T02:02:59.454Z,18.20
2022-10-08T02:03:11.456Z,18.20
2022-10-08T02:03:23.259Z,18.20
2022-10-08T02:03:34.864Z,18.20
2022-10-08T02:04:06.752Z,18.20
2022-10-08T02:04:33.495Z,18.20
2022-10-08T02:04:45.853Z,18.20
2022-10-08T02:04:57.533Z,18.20
2022-10-08T02:05:09.791Z,18.20
2022-10-08T02:05:22.825Z,18.20
2022-10-08T02:05:35.711Z,18.20
2022-10-08T02:05:50.799Z,18.20
2022-10-08T02:06:03.113Z,18.20
2022-10-08T02:06:14.909Z,18.20
2022-10-08T02:06:27.175Z,18.20
2022-10-08T02:06:41.066Z,18.20
2022-10-08T02:06:57.150Z,18.20
2022-10-08T02:07:20.682Z,18.20
2022-10-08T02:07:33.969Z,18.20
2022-10-08T02:07:45.796Z,18.20
2022-10-08T02:07:57.554Z,18.20
2022-10-08T02:08:09.345Z,18.20
2022-10-08T02:08:21.670Z,18.20
2022-10-08T02:08:33.481Z,18.20
2022-10-08T02:08:45.285Z,18.20
2022-10-08T02:08:57.117Z,18.20
2022-10-08T02:09:09.334Z,18.20
2022-10-08T02:09:22.351Z,18.30
2022-10-08T02:09:36.940Z,18.30
2022-10-08T02:09:53.880Z,18.30
2022-10-08T02:10:14.353Z,18.30
2022-10-08T02:10:26.172Z,18.30
2022-10-08T02:10:37.817Z,18.30
2022-10-08T02:10:49.493Z,18.20
2022-10-08T02:11:01.276Z,18.30
2022-10-08T02:11:12.921Z,18.30
2022-10-08T02:11:24.751Z,18.30
2022-10-08T02:11:36.601Z,18.30
2022-10-08T02:11:48.413Z,18.30
2022-10-08T02:12:00.145Z,18.30
2022-10-08T02:12:12.115Z,18.30
2022-10-08T02:12:23.978Z,18.30
2022-10-08T02:12:35.942Z,18.30
2022-10-08T02:12:48.029Z,18.30
2022-10-08T02:12:59.988Z,18.30
2022-10-08T02:13:11.806Z,18.30
2022-10-08T02:13:23.485Z,18.30
2022-10-08T02:13:35.274Z,18.30
2022-10-08T02:13:47.105Z,18.30
2022-10-08T02:13:58.906Z,18.30
2022-10-08T02:14:11.876Z,18.30
2022-10-08T02:14:25.989Z,18.30
2022-10-08T02:14:39.734Z,18.30
2022-10-08T02:14:53.417Z,18.30
2022-10-08T02:15:05.545Z,18.30
2022-10-08T02:15:29.264Z,18.20
2022-10-08T02:15:44.644Z,18.20
2022-10-08T02:16:06.887Z,18.30
2022-10-08T02:16:23.948Z,18.20
2022-10-08T02:16:36.546Z,18.30
2022-10-08T02:16:51.299Z,18.30
2022-10-08T02:17:43.704Z,18.30
2022-10-08T02:18:10.937Z,18.30
2022-10-08T02:18:41.011Z,18.30
2022-10-08T02:19:09.669Z,18.30
2022-10-08T02:19:53.253Z,18.30
2022-10-08T02:20:17.021Z,18.30
2022-10-08T02:20:35.185Z,18.20
2022-10-08T02:20:51.212Z,18.30
2022-10-08T02:21:04.888Z,18.20
2022-10-08T02:21:20.554Z,18.20
2022-10-08T02:21:32.451Z,18.20
2022-10-08T02:21:44.109Z,18.20
2022-10-08T02:21:56.333Z,18.20
2022-10-08T02:22:08.997Z,18.20
2022-10-08T02:22:23.217Z,18.20
2022-10-08T02:22:37.097Z,18.20
2022-10-08T02:23:22.216Z,18.20
2022-10-08T02:23:42.243Z,18.20
2022-10-08T02:24:00.890Z,18.20
2022-10-08T02:24:17.921Z,18.20
2022-10-08T02:24:41.872Z,18.20
2022-10-08T02:24:58.225Z,18.20
2022-10-08T02:25:39.352Z,18.20
2022-10-08T02:26:00.321Z,18.20
2022-10-08T02:26:14.461Z,18.20
2022-10-08T02:26:29.849Z,18.20
2022-10-08T02:26:46.278Z,18.10
2022-10-08T02:26:57.931Z,18.10
2022-10-08T02:27:09.787Z,18.10
2022-10-08T02:27:26.391Z,18.10
2022-10-08T02:27:54.432Z,18.10
2022-10-08T02:28:06.142Z,18.10
2022-10-08T02:28:28.678Z,18.20
2022-10-08T02:28:50.087Z,18.10
2022-10-08T02:29:29.036Z,18.10
2022-10-08T02:29:46.181Z,18.10
2022-10-08T02:30:08.238Z,18.10
2022-10-08T02:30:20.565Z,18.10
2022-10-08T02:30:37.107Z,18.10
2022-10-08T02:30:58.713Z,18.10
2022-10-08T02:31:16.188Z,18.10
2022-10-08T02:31:48.573Z,18.10
2022-10-08T02:32:06.884Z,18.10
2022-10-08T02:32:22.397Z,18.10
2022-10-08T02:32:37.030Z,18.10
2022-10-08T02:32:52.614Z,18.10
2022-10-08T02:33:11.189Z,18.10
2022-10-08T02:33:50.563Z,18.10
2022-10-08T02:34:12.140Z,18.10
2022-10-08T02:34:37.830Z,18.10
2022-10-08T02:34:54.050Z,18.00
2022-10-08T02:35:12.579Z,18.00
2022-10-08T02:35:27.122Z,18.00
2022-10-08T02:35:47.466Z,18.00
2022-10-08T02:35:59.681Z,18.00
2022-10-08T02:36:12.372Z,18.00
2022-10-08T02:36:29.562Z,18.00
2022-10-08T02:36:43.114Z,18.00
2022-10-08T02:37:07.035Z,18.00
2022-10-08T02:37:25.910Z,18.00
2022-10-08T02:37:41.856Z,18.00
2022-10-08T02:37:58.529Z,18.00
2022-10-08T02:38:21.678Z,18.10
2022-10-08T02:38:40.890Z,18.10
2022-10-08T02:38:57.565Z,18.00
2022-10-08T02:39:09.620Z,18.00
2022-10-08T02:39:21.587Z,18.10
2022-10-08T02:39:34.411Z,18.10
2022-10-08T02:39:49.388Z,18.00
2022-10-08T02:40:07.147Z,18.10
2022-10-08T02:40:19.190Z,18.10
2022-10-08T02:40:30.964Z,18.10
2022-10-08T02:40:43.489Z,18.10
2022-10-08T02:40:57.155Z,18.10
2022-10-08T02:41:09.034Z,18.10
2022-10-08T02:41:23.197Z,18.10
2022-10-08T02:41:47.736Z,18.10
2022-10-08T02:42:03.828Z,18.10
2022-10-08T02:42:17.449Z,18.10
2022-10-08T02:42:29.571Z,18.10
2022-10-08T02:42:44.409Z,18.10
2022-10-08T02:42:59.928Z,18.10
2022-10-08T02:43:18.976Z,18.10
2022-10-08T02:43:32.318Z,18.10
2022-10-08T02:43:47.025Z,18.10
2022-10-08T02:43:59.868Z,18.10
2022-10-08T02:44:17.971Z,18.10
2022-10-08T02:44:35.501Z,18.10
2022-10-08T02:44:57.617Z,18.10
2022-10-08T02:45:34.319Z,18.10
2022-10-08T02:45:50.870Z,18.10
2022-10-08T02:46:10.815Z,18.10
2022-10-08T02:46:23.372Z,18.10
2022-10-08T02:46:37.933Z,18.10
2022-10-08T02:46:50.620Z,18.10
2022-10-08T02:47:04.976Z,18.10
2022-10-08T02:47:18.530Z,18.10
2022-10-08T02:47:31.188Z,18.00
2022-10-08T02:47:42.984Z,18.10
2022-10-08T02:47:57.927Z,18.10
2022-10-08T02:48:15.137Z,18.10
2022-10-08T02:48:31.515Z,18.10
2022-10-08T02:48:53.276Z,18.10
2022-10-08T02:49:06.571Z,18.10
2022-10-08T02:49:19.282Z,18.10
2022-10-08T02:49:35.424Z,18.10
2022-10-08T02:49:50.675Z,18.10
2022-10-08T02:50:04.744Z,18.10
2022-10-08T02:50:18.309Z,18.10
2022-10-08T02:50:30.069Z,18.10
2022-10-08T02:50:41.882Z,18.10
2022-10-08T02:50:53.521Z,18.10
2022-10-08T02:51:06.824Z,18.10
2022-10-08T02:51:18.701Z,18.10
2022-10-08T02:51:30.852Z,18.10
2022-10-08T02:51:45.378Z,18.10
2022-10-08T02:51:57.854Z,18.10
2022-10-08T02:52:09.873Z,18.10
2022-10-08T02:52:21.671Z,18.00
2022-10-08T02:52:36.878Z,18.10
2022-10-08T02:52:49.287Z,18.00
2022-10-08T02:53:01.371Z,18.10
2022-10-08T02:53:14.515Z,18.00
2022-10-08T02:53:26.165Z,18.00
2022-10-08T02:53:39.027Z,18.00
2022-10-08T02:53:50.942Z,18.00
2022-10-08T02:54:04.463Z,18.00
2022-10-08T02:54:16.821Z,18.00
2022-10-08T02:54:31.944Z,18.00
2022-10-08T02:54:43.892Z,18.00
2022-10-08T02:54:55.733Z,18.00
2022-10-08T02:55:22.797Z,18.00
2022-10-08T02:55:41.605Z,18.00
2022-10-08T02:56:01.356Z,18.00
2022-10-08T02:56:15.472Z,18.00
2022-10-08T02:56:31.902Z,18.10
2022-10-08T02:56:51.543Z,18.10
2022-10-08T02:57:29.831Z,18.10
2022-10-08T02:57:44.008Z,18.10
2022-10-08T02:58:06.699Z,18.10
2022-10-08T02:58:18.415Z,18.10
2022-10-08T02:58:30.061Z,18.10
2022-10-08T02:58:43.274Z,18.10
2022-10-08T02:58:55.378Z,18.10
2022-10-08T02:59:07.016Z,18.10
2022-10-08T02:59:18.688Z,18.10
2022-10-08T02:59:31.791Z,18.10
2022-10-08T02:59:44.555Z,18.10
2022-10-08T02:59:56.372Z,18.10
2022-10-08T03:00:08.879Z,18.10
2022-10-08T03:00:20.711Z,18.10
2022-10-08T03:00:51.884Z,18.10
2022-10-08T03:01:08.988Z,18.10
2022-10-08T03:01:59.993Z,18.10
2022-10-08T03:02:14.639Z,18.10
2022-10-08T03:02:37.034Z,18.10
2022-10-08T03:03:01.203Z,18.10
2022-10-08T03:03:14.546Z,18.10
2022-10-08T03:03:29.332Z,18.10
2022-10-08T03:03:44.961Z,18.10
2022-10-08T03:04:02.953Z,18.10
2022-10-08T03:04:27.869Z,18.10
2022-10-08T03:04:59.493Z,18.10
2022-10-08T03:05:16.721Z,18.10
2022-10-08T03:05:29.219Z,18.00
2022-10-08T03:05:42.255Z,18.00
2022-10-08T03:05:53.921Z,18.00
2022-10-08T03:06:08.473Z,18.10
2022-10-08T03:06:20.218Z,18.10
2022-10-08T03:06:31.995Z,18.10
2022-10-08T03:06:43.675Z,18.10
2022-10-08T03:06:55.335Z,18.10
2022-10-08T03:07:07.037Z,18.10
2022-10-08T03:07:18.763Z,18.00
2022-10-08T03:07:30.957Z,18.00
2022-10-08T03:07:42.693Z,18.10
2022-10-08T03:07:54.387Z,18.10
2022-10-08T03:08:06.471Z,18.10
2022-10-08T03:08:18.174Z,18.10
2022-10-08T03:08:29.793Z,18.10
2022-10-08T03:08:44.858Z,18.10
2022-10-08T03:08:57.000Z,18.10
2022-10-08T03:09:08.699Z,18.10
2022-10-08T03:09:20.993Z,18.10
2022-10-08T03:09:37.831Z,18.10
2022-10-08T03:09:51.760Z,18.10
2022-10-08T03:10:05.844Z,18.10
2022-10-08T03:10:18.396Z,18.10
2022-10-08T03:10:30.661Z,18.10
2022-10-08T03:10:42.317Z,18.10
2022-10-08T03:10:53.953Z,18.10
2022-10-08T03:11:06.217Z,18.00
2022-10-08T03:11:17.919Z,18.00
2022-10-08T03:11:29.939Z,18.00
2022-10-08T03:11:41.650Z,18.00
2022-10-08T03:11:53.589Z,18.00
2022-10-08T03:12:05.748Z,18.00
2022-10-08T03:12:17.975Z,18.00
2022-10-08T03:12:30.283Z,18.00
2022-10-08T03:12:41.991Z,18.00
2022-10-08T03:12:54.681Z,18.00
2022-10-08T03:13:06.340Z,18.00
2022-10-08T03:13:18.430Z,18.00
2022-10-08T03:13:30.178Z,18.00
2022-10-08T03:13:43.242Z,18.00
2022-10-08T03:13:58.649Z,18.00
2022-10-08T03:14:11.629Z,18.00
2022-10-08T03:14:23.837Z,18.00
2022-10-08T03:14:40.006Z,18.00
2022-10-08T03:14:52.394Z,18.00
2022-10-08T03:15:04.512Z,18.00
2022-10-08T03:15:16.202Z,18.00
2022-10-08T03:15:28.754Z,18.00
2022-10-08T03:15:41.070Z,18.00
2022-10-08T03:15:53.862Z,18.00
2022-10-08T03:16:07.207Z,18.00
2022-10-08T03:16:21.327Z,18.00
2022-10-08T03:16:44.051Z,18.00
2022-10-08T03:16:55.807Z,18.00
2022-10-08T03:17:07.954Z,18.00
2022-10-08T03:17:22.561Z,18.00
2022-10-08T03:17:43.065Z,18.00
2022-10-08T03:17:54.773Z,18.00
2022-10-08T03:18:08.551Z,18.00
2022-10-08T03:18:20.260Z,18.00
2022-10-08T03:18:31.900Z,18.00
2022-10-08T03:18:43.567Z,18.00
2022-10-08T03:18:59.001Z,17.90
2022-10-08T03:19:11.831Z,18.00
2022-10-08T03:19:23.634Z,18.00